Time;durP1;ratioP1;P1;durP2;ratioP2;P2;SDS_P1;SDS_P2;PMS_P1;PMS_P2;Temp;Humidity;BMP_temperature;BMP_pressure;BME280_temperature;BME280_humidity;BME280_pressure;Samples;Min_cycle;Max_cycle;Signal;HPM_P1;HPM_P2
2023/09/11 00:01:49;;;;;;;9.93;8.77;;;24.80;63.10;;;;;;5028306;28;20049;-54
2023/09/11 00:04:28;;;;;;;9.55;8.20;;;24.80;63.20;;;;;;5029270;28;20096;-55
2023/09/11 00:07:00;;;;;;;11.88;9.23;;;24.80;63.30;;;;;;5025296;28;20041;-55
2023/09/11 00:09:42;;;;;;;9.77;8.65;;;24.70;63.00;;;;;;5025792;28;20950;-57
2023/09/11 00:12:18;;;;;;;10.20;9.10;;;24.70;63.20;;;;;;5026424;28;20041;-52
2023/09/11 00:14:49;;;;;;;10.27;9.20;;;24.70;63.00;;;;;;5027578;28;20120;-55
2023/09/11 00:17:27;;;;;;;9.52;8.73;;;24.70;63.10;;;;;;5028951;28;20502;-55
2023/09/11 00:20:24;;;;;;;9.32;8.50;;;24.60;63.10;;;;;;5029135;28;20557;-54
2023/09/11 00:23:08;;;;;;;9.48;8.48;;;24.60;63.10;;;;;;5023561;28;20044;-54
2023/09/11 00:25:36;;;;;;;10.15;9.02;;;24.60;63.30;;;;;;5028408;28;20045;-51
2023/09/11 00:28:26;;;;;;;9.60;8.77;;;24.50;63.10;;;;;;5029043;28;20132;-55
2023/09/11 00:31:05;;;;;;;9.60;8.65;;;24.50;63.10;;;;;;5027123;28;20045;-55
2023/09/11 00:33:44;;;;;;;11.30;9.65;;;24.50;63.00;;;;;;5024056;28;20557;-55
2023/09/11 00:36:19;;;;;;;10.73;9.63;;;24.50;63.20;;;;;;5028975;28;20033;-54
2023/09/11 00:38:59;;;;;;;12.15;8.45;;;24.40;63.40;;;;;;5029334;28;20073;-51
2023/09/11 00:41:49;;;;;;;11.68;9.27;;;24.40;63.80;;;;;;5022416;28;20069;-56
2023/09/11 00:44:25;;;;;;;11.95;9.05;;;24.40;64.30;;;;;;5028131;28;20080;-52
2023/09/11 00:46:58;;;;;;;9.18;8.40;;;24.40;63.90;;;;;;5028375;28;20056;-55
2023/09/11 00:49:28;;;;;;;9.88;8.85;;;24.40;63.90;;;;;;5028250;28;20095;-54
2023/09/11 00:52:14;;;;;;;9.52;8.15;;;24.40;64.00;;;;;;5026752;28;20033;-54
2023/09/11 00:54:59;;;;;;;8.80;8.00;;;24.40;64.30;;;;;;5028423;28;20034;-53
2023/09/11 00:57:30;;;;;;;8.98;7.88;;;24.30;64.00;;;;;;5027425;28;20047;-52
2023/09/11 01:00:06;;;;;;;10.43;8.70;;;24.30;64.00;;;;;;5018642;28;20045;-55
2023/09/11 01:02:38;;;;;;;9.57;8.63;;;24.30;64.10;;;;;;5023163;28;20045;-54
2023/09/11 01:05:15;;;;;;;11.07;9.25;;;24.30;63.90;;;;;;5012997;28;20124;-54
2023/09/11 01:07:52;;;;;;;9.93;8.95;;;24.20;63.90;;;;;;5029037;28;20064;-53
2023/09/11 01:10:27;;;;;;;11.32;9.57;;;24.30;64.10;;;;;;5028243;28;20080;-52
2023/09/11 01:13:25;;;;;;;9.95;8.95;;;24.20;64.00;;;;;;5023941;28;20069;-56
2023/09/11 01:16:42;;;;;;;10.90;8.80;;;24.20;64.20;;;;;;5026446;28;20061;-54
2023/09/11 01:19:27;;;;;;;10.48;8.60;;;24.20;64.40;;;;;;5026029;28;20056;-52
2023/09/11 01:22:22;;;;;;;11.07;9.57;;;24.10;64.40;;;;;;5029135;28;20033;-55
2023/09/11 01:25:30;;;;;;;;;;;;;;;;;;;;;
2023/09/11 01:28:37;;;;;;;11.82;9.18;;;24.10;64.60;;;;;;5029849;28;20041;-52
2023/09/11 01:31:09;;;;;;;11.02;9.70;;;24.10;64.30;;;;;;5030160;28;20042;-53
2023/09/11 01:33:45;;;;;;;;;;;24.00;64.10;;;;;;5030244;28;20073;-54
2023/09/11 01:36:32;;;;;;;9.75;7.88;;;24.10;63.60;;;;;;5029814;28;19936;-56
2023/09/11 01:39:10;;;;;;;10.73;8.55;;;24.00;63.60;;;;;;5029699;28;20045;-54
2023/09/11 01:41:54;;;;;;;9.52;8.35;;;24.00;63.80;;;;;;5026848;28;20104;-54
2023/09/11 01:44:53;;;;;;;12.57;9.00;;;23.90;64.30;;;;;;5027206;28;20081;-51
2023/09/11 01:47:46;;;;;;;10.63;9.63;;;23.90;64.30;;;;;;5031746;28;20041;-55
2023/09/11 01:50:32;;;;;;;;;;;;;;;;;;;;;
2023/09/11 01:53:05;;;;;;;8.73;7.90;;;23.80;63.80;;;;;;5021864;28;20419;-53
2023/09/11 01:55:49;;;;;;;;;;;;;;;;;;;;;
2023/09/11 01:58:49;;;;;;;12.00;9.07;;;23.70;63.70;;;;;;5025047;28;20038;-54
2023/09/11 02:01:56;;;;;;;;;;;23.70;63.90;;;;;;5028610;28;20415;-54
2023/09/11 02:04:29;;;;;;;9.65;8.82;;;23.70;63.00;;;;;;5029682;28;19921;-54
2023/09/11 02:07:02;;;;;;;10.80;8.25;;;23.60;63.20;;;;;;5030655;28;20049;-54
2023/09/11 02:09:47;;;;;;;9.07;8.15;;;23.60;63.20;;;;;;5026179;28;20127;-53
2023/09/11 02:12:45;;;;;;;9.13;8.02;;;23.50;63.80;;;;;;5030493;28;20029;-54
2023/09/11 02:15:15;;;;;;;10.88;8.38;;;23.40;63.40;;;;;;5029389;28;20469;-54
2023/09/11 02:17:46;;;;;;;10.32;9.20;;;23.40;63.50;;;;;;5029886;28;20562;-53
2023/09/11 02:20:30;;;;;;;10.00;8.98;;;23.40;63.80;;;;;;5021843;28;20053;-54
2023/09/11 02:23:02;;;;;;;10.60;9.25;;;23.30;63.80;;;;;;5031808;28;20494;-52
2023/09/11 02:25:46;;;;;;;9.75;8.38;;;23.30;63.80;;;;;;5027496;28;20041;-53
2023/09/11 02:28:41;;;;;;;9.88;8.07;;;23.30;64.00;;;;;;5014601;28;20491;-52
2023/09/11 02:31:22;;;;;;;9.15;7.68;;;23.20;63.90;;;;;;5029855;28;20493;-55
2023/09/11 02:33:56;;;;;;;10.35;8.32;;;23.30;63.90;;;;;;5027424;28;20462;-52
2023/09/11 02:36:29;;;;;;;8.80;7.75;;;23.10;63.90;;;;;;5024079;28;20049;-55
2023/09/11 02:39:10;;;;;;;10.48;8.30;;;23.10;64.10;;;;;;5030837;28;20037;-55
2023/09/11 02:41:53;;;;;;;9.25;7.97;;;23.10;64.10;;;;;;5026063;28;20026;-53
2023/09/11 02:44:30;;;;;;;;;;;23.00;64.00;;;;;;5029749;28;20045;-52
2023/09/11 02:47:03;;;;;;;8.40;7.28;;;23.10;63.70;;;;;;5029862;28;20303;-55
2023/09/11 02:49:35;;;;;;;9.50;8.60;;;23.00;63.80;;;;;;5025967;28;20053;-55
2023/09/11 02:52:25;;;;;;;8.82;7.95;;;23.00;64.00;;;;;;5024888;28;20438;-52
2023/09/11 02:54:57;;;;;;;8.98;8.10;;;23.00;64.30;;;;;;5029551;28;20056;-54
2023/09/11 02:57:44;;;;;;;8.73;7.70;;;23.00;64.30;;;;;;5026686;28;20152;-56
2023/09/11 03:00:14;;;;;;;8.43;7.70;;;22.90;64.40;;;;;;5023178;28;20045;-55
2023/09/11 03:02:46;;;;;;;8.68;7.88;;;22.90;64.30;;;;;;5028731;28;20387;-54
2023/09/11 03:05:25;;;;;;;11.55;7.65;;;22.90;64.40;;;;;;5029160;28;20384;-53
2023/09/11 03:08:03;;;;;;;11.32;8.82;;;22.80;64.20;;;;;;5028109;28;20053;-54
2023/09/11 03:10:45;;;;;;;9.43;7.97;;;22.80;64.30;;;;;;5023387;28;20510;-51
2023/09/11 03:13:19;;;;;;;8.45;7.63;;;22.80;64.70;;;;;;5027505;28;20447;-53
2023/09/11 03:16:14;;;;;;;9.00;7.80;;;22.80;64.50;;;;;;5028717;28;20053;-55
2023/09/11 03:19:04;;;;;;;11.30;8.25;;;22.80;64.80;;;;;;5026976;28;20049;-55
2023/09/11 03:21:40;;;;;;;9.13;8.32;;;22.70;64.30;;;;;;5025248;28;20120;-53
2023/09/11 03:24:16;;;;;;;9.52;8.43;;;22.70;64.50;;;;;;5029474;28;20091;-55
2023/09/11 03:26:47;;;;;;;8.05;7.25;;;22.70;64.60;;;;;;5029674;28;20050;-53
2023/09/11 03:29:26;;;;;;;9.80;8.68;;;22.70;64.60;;;;;;5019139;28;20136;-51
2023/09/11 03:32:12;;;;;;;9.48;8.55;;;22.60;64.70;;;;;;5024614;28;20567;-52
2023/09/11 03:34:40;;;;;;;11.00;8.65;;;22.60;64.60;;;;;;5027859;28;20550;-54
2023/09/11 03:37:21;;;;;;;8.93;8.13;;;22.60;64.70;;;;;;5027948;28;20423;-51
2023/09/11 03:40:15;;;;;;;9.00;8.30;;;22.60;64.70;;;;;;5027120;28;20491;-54
2023/09/11 03:42:55;;;;;;;9.63;8.25;;;22.50;64.50;;;;;;5021516;28;20051;-51
2023/09/11 03:45:33;;;;;;;9.18;8.35;;;22.50;64.50;;;;;;5028049;28;20396;-52
2023/09/11 03:48:24;;;;;;;9.32;7.93;;;22.50;64.70;;;;;;5028253;28;20041;-56
2023/09/11 03:50:54;;;;;;;9.18;8.15;;;22.50;64.50;;;;;;5029678;28;20072;-55
2023/09/11 03:53:42;;;;;;;7.78;6.97;;;22.40;64.60;;;;;;5029058;28;20068;-54
2023/09/11 03:56:13;;;;;;;8.82;8.13;;;22.40;64.90;;;;;;5038238;28;20041;-53
2023/09/11 03:58:56;;;;;;;10.52;7.88;;;22.40;64.70;;;;;;5020573;28;20124;-52
2023/09/11 04:01:31;;;;;;;8.98;8.15;;;22.30;64.80;;;;;;5024941;28;20055;-51
2023/09/11 04:04:07;;;;;;;8.55;7.78;;;22.30;64.90;;;;;;5026705;28;20052;-54
2023/09/11 04:06:40;;;;;;;12.10;8.65;;;22.30;65.20;;;;;;5040229;28;20045;-53
2023/09/11 04:09:12;;;;;;;9.00;8.10;;;22.30;65.10;;;;;;5029403;28;20041;-51
2023/09/11 04:11:52;;;;;;;8.98;8.07;;;22.20;65.00;;;;;;5027062;28;20164;-54
2023/09/11 04:14:38;;;;;;;8.73;7.82;;;22.30;65.30;;;;;;5023633;28;20550;-53
2023/09/11 04:17:19;;;;;;;10.20;8.60;;;22.20;65.00;;;;;;5027864;28;20044;-57
2023/09/11 04:20:05;;;;;;;9.35;8.15;;;22.20;65.20;;;;;;5027659;28;20045;-55
2023/09/11 04:22:45;;;;;;;9.18;8.38;;;22.20;65.30;;;;;;5019966;28;20057;-54
2023/09/11 04:25:35;;;;;;;8.63;7.82;;;22.10;65.00;;;;;;5019227;28;20054;-56
2023/09/11 04:28:10;;;;;;;9.63;8.60;;;22.10;64.90;;;;;;5019539;28;20061;-55
2023/09/11 04:31:14;;;;;;;;;;;22.10;65.00;;;;;;5023912;28;20052;-53
2023/09/11 04:33:52;;;;;;;7.70;6.88;;;22.10;64.60;;;;;;5019850;28;19968;-52
2023/09/11 04:36:45;;;;;;;10.05;7.75;;;22.10;65.00;;;;;;5020504;28;20038;-52
2023/09/11 04:39:20;;;;;;;11.48;8.65;;;22.10;65.00;;;;;;5026072;28;20392;-55
2023/09/11 04:42:08;;;;;;;8.55;7.78;;;22.10;65.00;;;;;;5027033;28;20096;-56
2023/09/11 04:44:49;;;;;;;10.13;8.18;;;22.00;65.20;;;;;;5022913;28;20038;-51
2023/09/11 04:47:21;;;;;;;10.63;8.02;;;22.00;65.30;;;;;;5022880;28;20053;-52
2023/09/11 04:50:01;;;;;;;9.20;8.30;;;21.90;65.30;;;;;;5024054;28;20049;-52
2023/09/11 04:52:56;;;;;;;9.55;8.50;;;21.90;65.20;;;;;;5023031;28;20093;-51
2023/09/11 04:55:33;;;;;;;10.50;9.50;;;21.90;65.40;;;;;;5000757;28;20049;-51
2023/09/11 04:58:05;;;;;;;9.98;8.73;;;21.90;65.50;;;;;;5009387;28;20041;-56
2023/09/11 05:00:32;;;;;;;10.25;9.20;;;21.90;65.50;;;;;;5026832;28;20042;-56
2023/09/11 05:03:01;;;;;;;8.45;7.65;;;21.80;65.50;;;;;;5023559;28;20044;-54
2023/09/11 05:05:28;;;;;;;10.05;9.13;;;21.80;65.60;;;;;;5026884;28;20547;-52
2023/09/11 05:07:58;;;;;;;9.55;8.70;;;21.80;65.80;;;;;;5029419;28;20064;-53
2023/09/11 05:10:26;;;;;;;9.25;8.35;;;21.80;65.80;;;;;;5025676;28;20100;-53
2023/09/11 05:12:53;;;;;;;10.25;9.35;;;21.80;65.80;;;;;;5009690;28;20041;-56
2023/09/11 05:15:20;;;;;;;9.90;8.88;;;21.80;65.80;;;;;;5018248;28;20041;-54
2023/09/11 05:17:47;;;;;;;10.02;8.88;;;21.80;66.10;;;;;;5005031;28;20133;-55
2023/09/11 05:20:14;;;;;;;10.52;9.52;;;21.80;66.10;;;;;;5022375;28;20045;-57
2023/09/11 05:22:41;;;;;;;11.68;9.85;;;21.80;66.20;;;;;;5027181;28;20147;-54
2023/09/11 05:25:08;;;;;;;11.18;10.07;;;21.80;66.30;;;;;;5026867;28;20100;-56
2023/09/11 05:27:38;;;;;;;10.40;8.63;;;21.80;66.30;;;;;;5019375;28;20050;-55
2023/09/11 05:30:05;;;;;;;9.93;9.10;;;21.80;66.60;;;;;;5020865;28;20056;-54
2023/09/11 05:32:32;;;;;;;12.13;10.82;;;21.80;66.60;;;;;;5017908;28;20744;-57
2023/09/11 05:35:00;;;;;;;10.30;9.40;;;21.80;66.90;;;;;;5023031;28;20184;-52
2023/09/11 05:37:27;;;;;;;9.80;8.90;;;21.80;67.00;;;;;;5027943;28;20584;-53
2023/09/11 05:39:54;;;;;;;13.70;9.43;;;21.90;67.30;;;;;;5027194;28;20069;-56
2023/09/11 05:42:23;;;;;;;10.20;9.18;;;21.80;67.40;;;;;;5022741;28;20056;-54
2023/09/11 05:44:49;;;;;;;10.93;9.50;;;21.90;67.70;;;;;;5012717;28;20073;-53
2023/09/11 05:47:16;;;;;;;12.50;9.98;;;21.90;68.00;;;;;;5017396;28;20041;-54
2023/09/11 05:49:46;;;;;;;10.50;9.50;;;21.90;68.20;;;;;;5017367;28;20056;-56
2023/09/11 05:52:12;;;;;;;10.38;9.32;;;22.00;68.30;;;;;;5026257;28;20045;-56
2023/09/11 05:54:41;;;;;;;12.30;9.77;;;22.00;68.40;;;;;;5028244;28;20096;-55
2023/09/11 05:57:10;;;;;;;12.75;9.73;;;22.10;68.50;;;;;;5029549;28;20124;-56
2023/09/11 05:59:41;;;;;;;11.00;9.67;;;22.10;68.60;;;;;;5025369;28;20045;-55
2023/09/11 06:02:08;;;;;;;10.80;9.43;;;22.20;68.70;;;;;;5024218;28;20044;-53
2023/09/11 06:04:34;;;;;;;11.45;10.25;;;22.20;68.80;;;;;;5024984;28;20152;-57
2023/09/11 06:07:03;;;;;;;14.70;9.65;;;22.20;69.00;;;;;;5028530;28;20587;-57
2023/09/11 06:09:30;;;;;;;13.95;9.80;;;22.30;69.20;;;;;;5026482;28;20049;-56
2023/09/11 06:11:57;;;;;;;11.13;9.90;;;22.30;69.30;;;;;;5023863;28;20037;-54
2023/09/11 06:14:26;;;;;;;11.55;9.75;;;22.40;70.10;;;;;;5019716;28;20567;-54
2023/09/11 06:16:55;;;;;;;14.40;10.45;;;22.40;69.50;;;;;;5024359;28;20125;-53
2023/09/11 06:19:22;;;;;;;10.70;9.65;;;22.50;69.60;;;;;;5029619;28;20041;-56
2023/09/11 06:21:48;;;;;;;11.43;9.68;;;22.50;69.70;;;;;;5019770;28;21813;-53
2023/09/11 06:24:15;;;;;;;12.73;9.68;;;22.60;69.80;;;;;;5029875;28;20041;-53
2023/09/11 06:26:43;;;;;;;10.35;9.27;;;22.70;69.80;;;;;;5030825;28;20112;-52
2023/09/11 06:29:10;;;;;;;10.88;9.48;;;22.70;70.30;;;;;;5029828;28;20040;-55
2023/09/11 06:31:36;;;;;;;13.95;9.35;;;22.80;69.80;;;;;;5028767;28;20076;-52
2023/09/11 06:34:03;;;;;;;13.70;10.82;;;22.90;69.90;;;;;;5025764;28;20041;-56
2023/09/11 06:36:30;;;;;;;14.43;9.00;;;22.90;69.90;;;;;;5029145;28;20491;-53
2023/09/11 06:38:57;;;;;;;10.50;9.40;;;22.90;69.80;;;;;;5023587;28;20037;-57
2023/09/11 06:41:23;;;;;;;13.85;9.15;;;23.00;69.90;;;;;;5027682;28;20133;-56
2023/09/11 06:43:50;;;;;;;10.88;8.82;;;23.00;69.90;;;;;;5027985;28;20043;-54
2023/09/11 06:46:17;;;;;;;10.90;9.38;;;23.10;70.00;;;;;;5027429;28;20096;-56
2023/09/11 06:48:43;;;;;;;14.07;9.02;;;23.20;70.10;;;;;;5023807;28;20124;-55
2023/09/11 06:51:10;;;;;;;10.07;8.27;;;23.20;70.10;;;;;;5020616;28;20042;-56
2023/09/11 06:53:37;;;;;;;10.57;9.40;;;23.20;70.10;;;;;;5007845;28;20692;-52
2023/09/11 06:56:07;;;;;;;10.38;9.38;;;23.30;70.20;;;;;;5022655;28;20037;-56
2023/09/11 06:58:34;;;;;;;11.93;8.88;;;23.40;70.40;;;;;;5022899;28;20143;-58
2023/09/11 07:01:02;;;;;;;9.85;8.85;;;23.30;70.20;;;;;;5024383;28;20069;-51
2023/09/11 07:03:29;;;;;;;9.82;8.85;;;23.40;70.30;;;;;;5019835;28;20128;-53
2023/09/11 07:05:55;;;;;;;9.82;8.32;;;23.40;70.20;;;;;;5019040;28;20049;-54
2023/09/11 07:08:22;;;;;;;9.57;8.55;;;23.40;70.20;;;;;;5027255;28;20056;-54
2023/09/11 07:10:50;;;;;;;9.93;8.93;;;23.40;70.30;;;;;;5030094;28;20081;-55
2023/09/11 07:13:17;;;;;;;9.85;8.90;;;23.50;70.50;;;;;;5023147;28;20072;-53
2023/09/11 07:15:43;;;;;;;9.00;8.10;;;23.60;70.40;;;;;;5030909;28;20045;-56
2023/09/11 07:18:10;;;;;;;10.68;8.43;;;23.60;70.50;;;;;;5028487;28;20104;-51
2023/09/11 07:20:37;;;;;;;9.95;8.35;;;23.60;70.50;;;;;;5030691;28;20051;-55
2023/09/11 07:23:04;;;;;;;13.93;8.50;;;23.60;70.60;;;;;;5026806;28;20052;-54
2023/09/11 07:25:30;;;;;;;9.45;8.45;;;23.70;70.70;;;;;;5029484;28;20491;-53
2023/09/11 07:27:57;;;;;;;11.30;8.38;;;23.70;70.60;;;;;;5029882;28;20119;-53
2023/09/11 07:30:24;;;;;;;9.57;8.63;;;23.80;70.50;;;;;;5025166;28;20053;-57
2023/09/11 07:32:52;;;;;;;10.13;7.75;;;23.80;70.50;;;;;;5021742;28;20037;-52
2023/09/11 07:35:20;;;;;;;10.55;8.23;;;23.90;70.70;;;;;;5027688;28;20438;-52
2023/09/11 07:37:48;;;;;;;9.90;7.47;;;23.90;70.50;;;;;;5029838;28;20041;-55
2023/09/11 07:40:15;;;;;;;8.88;7.68;;;23.90;70.30;;;;;;5023609;28;20512;-55
2023/09/11 07:42:41;;;;;;;8.38;6.85;;;24.00;70.00;;;;;;5019255;28;20046;-59
2023/09/11 07:45:09;;;;;;;10.07;6.57;;;24.00;69.90;;;;;;5022545;28;20049;-55
2023/09/11 07:47:35;;;;;;;8.05;5.40;;;24.10;68.40;;;;;;5025054;28;20077;-55
2023/09/11 07:50:02;;;;;;;9.18;5.35;;;24.10;66.60;;;;;;5020928;28;20049;-54
2023/09/11 07:52:29;;;;;;;10.75;5.90;;;24.20;65.70;;;;;;5025850;28;20415;-56
2023/09/11 07:54:57;;;;;;;7.63;5.70;;;24.30;65.60;;;;;;5022312;28;20120;-55
2023/09/11 07:57:24;;;;;;;8.55;5.95;;;24.30;64.60;;;;;;5027965;28;20503;-55
2023/09/11 07:59:51;;;;;;;6.70;6.10;;;24.50;63.80;;;;;;5025865;28;20045;-56
2023/09/11 08:02:18;;;;;;;8.02;5.93;;;24.50;64.20;;;;;;5011285;28;20128;-56
2023/09/11 08:04:47;;;;;;;9.55;6.00;;;24.70;63.50;;;;;;5025393;28;20041;-54
2023/09/11 08:07:14;;;;;;;6.97;5.60;;;24.80;62.70;;;;;;5029380;28;20045;-57
2023/09/11 08:09:41;;;;;;;9.95;6.70;;;24.90;62.10;;;;;;5016203;28;20041;-54
2023/09/11 08:12:08;;;;;;;8.15;5.65;;;25.00;61.50;;;;;;5026202;28;20551;-56
2023/09/11 08:14:35;;;;;;;14.50;5.32;;;25.10;61.00;;;;;;5029205;28;20046;-56
2023/09/11 08:17:02;;;;;;;9.27;5.63;;;25.20;60.60;;;;;;5021069;28;20049;-58
2023/09/11 08:19:29;;;;;;;9.13;5.40;;;25.30;60.50;;;;;;5022232;28;20124;-58
2023/09/11 08:21:55;;;;;;;6.53;5.28;;;25.40;59.90;;;;;;5024824;28;20045;-55
2023/09/11 08:24:25;;;;;;;9.88;6.15;;;25.50;59.70;;;;;;5027569;28;20042;-56
2023/09/11 08:26:52;;;;;;;8.63;5.07;;;25.60;59.40;;;;;;5027107;28;20057;-55
2023/09/11 08:29:19;;;;;;;8.35;5.60;;;25.60;59.30;;;;;;5024180;28;20100;-51
2023/09/11 08:31:45;;;;;;;10.65;5.97;;;25.70;59.40;;;;;;5025438;28;20056;-59
2023/09/11 08:34:13;;;;;;;9.80;5.88;;;25.80;59.00;;;;;;5023482;28;20125;-57
2023/09/11 08:36:39;;;;;;;8.95;5.82;;;25.80;58.80;;;;;;5028864;28;20484;-56
2023/09/11 08:39:07;;;;;;;10.95;5.80;;;25.90;58.90;;;;;;5024148;28;20645;-55
2023/09/11 08:41:35;;;;;;;11.77;6.60;;;25.90;58.80;;;;;;5029611;28;20643;-57
2023/09/11 08:44:02;;;;;;;9.55;6.00;;;26.10;58.70;;;;;;5026540;28;20053;-58
2023/09/11 08:46:32;;;;;;;7.78;5.85;;;26.00;59.10;;;;;;5023179;28;20045;-52
2023/09/11 08:49:01;;;;;;;9.00;6.13;;;26.10;58.80;;;;;;5022698;28;20046;-55
2023/09/11 08:51:35;;;;;;;9.60;6.25;;;26.20;59.20;;;;;;5028797;28;20125;-57
2023/09/11 08:54:09;;;;;;;8.07;5.32;;;26.20;59.60;;;;;;5028153;28;20737;-55
2023/09/11 08:56:41;;;;;;;8.30;5.63;;;26.30;58.80;;;;;;5028973;28;20048;-58
2023/09/11 08:59:11;;;;;;;5.90;5.40;;;26.30;58.80;;;;;;5028511;28;20092;-53
2023/09/11 09:01:43;;;;;;;6.07;5.45;;;26.30;58.70;;;;;;5029240;28;20091;-53
2023/09/11 09:04:11;;;;;;;10.13;6.72;;;26.40;58.60;;;;;;5023771;28;20076;-51
2023/09/11 09:06:38;;;;;;;11.15;6.32;;;26.40;58.90;;;;;;5029396;28;20049;-49
2023/09/11 09:09:05;;;;;;;10.40;5.57;;;26.40;59.00;;;;;;5028323;28;20076;-55
2023/09/11 09:11:34;;;;;;;9.45;6.35;;;26.50;59.30;;;;;;5020971;28;20056;-54
2023/09/11 09:14:06;;;;;;;8.63;6.38;;;26.60;59.30;;;;;;5025731;28;20465;-53
2023/09/11 09:16:34;;;;;;;7.68;5.60;;;26.60;59.50;;;;;;5022884;28;20084;-52
2023/09/11 09:19:06;;;;;;;8.77;6.53;;;26.60;58.90;;;;;;5028750;28;20057;-49
2023/09/11 09:21:35;;;;;;;8.68;6.13;;;26.70;59.20;;;;;;5020068;28;20045;-50
2023/09/11 09:24:17;;;;;;;8.65;6.13;;;26.80;58.80;;;;;;5028356;28;20068;-50
2023/09/11 09:27:04;;;;;;;7.88;6.15;;;26.80;58.40;;;;;;5023003;28;20139;-53
2023/09/11 09:29:35;;;;;;;9.68;6.40;;;26.90;58.40;;;;;;5028441;28;20530;-54
2023/09/11 09:32:07;;;;;;;7.60;6.30;;;27.00;58.80;;;;;;5019529;28;20561;-54
2023/09/11 09:34:41;;;;;;;9.38;6.28;;;27.00;58.20;;;;;;5021140;28;20037;-56
2023/09/11 09:37:18;;;;;;;6.97;6.00;;;27.00;58.30;;;;;;5027991;28;20042;-55
2023/09/11 09:39:48;;;;;;;9.07;6.00;;;27.10;58.40;;;;;;5029231;28;20048;-53
2023/09/11 09:42:15;;;;;;;7.82;6.72;;;27.10;58.40;;;;;;5026019;28;20095;-55
2023/09/11 09:44:55;;;;;;;8.15;6.88;;;27.10;58.10;;;;;;5032853;28;20475;-52
2023/09/11 09:47:22;;;;;;;8.48;6.40;;;27.20;58.00;;;;;;5032102;28;20048;-51
2023/09/11 09:49:53;;;;;;;7.25;6.22;;;27.20;58.40;;;;;;5030911;28;20049;-55
2023/09/11 09:52:28;;;;;;;9.80;6.45;;;27.30;58.30;;;;;;5030237;28;20450;-53
2023/09/11 09:55:02;;;;;;;7.65;5.68;;;27.30;58.70;;;;;;5031758;28;20041;-54
2023/09/11 09:57:28;;;;;;;10.05;6.90;;;27.40;58.10;;;;;;5030957;28;20088;-55
2023/09/11 10:00:00;;;;;;;13.50;7.00;;;27.40;58.20;;;;;;5025982;28;20042;-53
2023/09/11 10:02:32;;;;;;;10.25;6.70;;;27.50;57.30;;;;;;5025399;28;20049;-55
2023/09/11 10:05:13;;;;;;;7.70;6.80;;;27.50;57.60;;;;;;5029032;28;20140;-56
2023/09/11 10:07:42;;;;;;;8.57;6.25;;;27.60;57.30;;;;;;5024400;28;20041;-56
2023/09/11 10:10:27;;;;;;;7.95;6.47;;;27.60;58.20;;;;;;5028125;28;20034;-58
2023/09/11 10:13:16;;;;;;;10.27;6.30;;;27.70;57.50;;;;;;5029055;28;20111;-56
2023/09/11 10:15:44;;;;;;;7.60;6.68;;;27.70;56.90;;;;;;5028661;28;20042;-55
2023/09/11 10:18:12;;;;;;;11.98;8.07;;;27.80;58.00;;;;;;5030506;28;20041;-56
2023/09/11 10:20:40;;;;;;;10.43;6.80;;;27.80;57.50;;;;;;5030359;28;20096;-57
2023/09/11 10:23:10;;;;;;;7.35;6.53;;;27.90;57.80;;;;;;5023052;28;20046;-57
2023/09/11 10:25:40;;;;;;;7.68;6.97;;;27.90;57.00;;;;;;5025713;28;20049;-56
2023/09/11 10:28:13;;;;;;;7.75;6.68;;;28.00;56.50;;;;;;5020881;28;20072;-57
2023/09/11 10:30:52;;;;;;;10.35;6.63;;;28.00;55.80;;;;;;5030851;28;20037;-54
2023/09/11 10:33:38;;;;;;;9.50;6.70;;;28.00;56.00;;;;;;5020365;28;20041;-57
2023/09/11 10:36:10;;;;;;;8.77;6.53;;;28.10;56.70;;;;;;5032600;28;20045;-55
2023/09/11 10:38:37;;;;;;;;;;;28.10;56.50;;;;;;5024351;28;20046;-56
2023/09/11 10:41:09;;;;;;;12.82;6.68;;;28.20;56.80;;;;;;5020697;28;20391;-57
2023/09/11 10:43:45;;;;;;;15.38;7.40;;;28.20;55.90;;;;;;5027137;28;20105;-55
2023/09/11 10:46:32;;;;;;;9.18;7.15;;;28.30;56.40;;;;;;5022966;28;20089;-57
2023/09/11 10:49:17;;;;;;;9.88;7.30;;;28.30;55.70;;;;;;5023007;28;20754;-57
2023/09/11 10:51:47;;;;;;;11.80;7.75;;;28.40;56.20;;;;;;5023648;28;20406;-56
2023/09/11 10:54:18;;;;;;;9.75;7.25;;;28.40;55.60;;;;;;5024546;28;20043;-57
2023/09/11 10:56:51;;;;;;;10.90;7.78;;;28.40;55.60;;;;;;5023382;28;20742;-57
2023/09/11 10:59:23;;;;;;;8.27;7.07;;;28.50;55.60;;;;;;5023345;28;20065;-57
2023/09/11 11:01:51;;;;;;;9.35;7.22;;;28.50;56.20;;;;;;5029854;28;20099;-56
2023/09/11 11:04:21;;;;;;;8.45;7.60;;;28.50;55.60;;;;;;5026433;28;20057;-57
2023/09/11 11:06:52;;;;;;;11.55;8.10;;;28.70;55.50;;;;;;5031024;28;20048;-56
2023/09/11 11:09:29;;;;;;;11.10;8.43;;;28.70;55.20;;;;;;5030478;28;20045;-57
2023/09/11 11:12:06;;;;;;;10.07;7.82;;;28.70;55.10;;;;;;5028384;28;20041;-56
2023/09/11 11:14:37;;;;;;;9.57;8.05;;;28.80;55.30;;;;;;5029243;28;20056;-56
2023/09/11 11:17:08;;;;;;;11.63;8.20;;;28.80;54.60;;;;;;5028550;28;20061;-57
2023/09/11 11:19:40;;;;;;;13.27;8.57;;;28.90;54.80;;;;;;5024655;28;20037;-56
2023/09/11 11:22:08;;;;;;;8.68;7.88;;;28.90;55.10;;;;;;5030138;28;20041;-57
2023/09/11 11:24:52;;;;;;;8.85;7.85;;;29.00;54.60;;;;;;5030489;28;20037;-57
2023/09/11 11:27:19;;;;;;;8.07;6.72;;;29.10;53.40;;;;;;5024575;28;20101;-55
2023/09/11 11:29:49;;;;;;;12.88;8.18;;;29.10;53.90;;;;;;5030484;28;20055;-55
2023/09/11 11:32:17;;;;;;;11.20;8.43;;;29.10;54.30;;;;;;5023672;28;20046;-55
2023/09/11 11:34:45;;;;;;;9.07;7.40;;;29.20;53.90;;;;;;5027027;28;20049;-56
2023/09/11 11:37:13;;;;;;;9.45;7.47;;;29.20;54.40;;;;;;5030627;28;20061;-57
2023/09/11 11:39:43;;;;;;;10.43;7.78;;;29.30;54.60;;;;;;5023009;28;20057;-57
2023/09/11 11:42:12;;;;;;;8.05;7.25;;;29.30;54.30;;;;;;5027632;28;20041;-57
2023/09/11 11:44:41;;;;;;;8.88;6.93;;;29.40;54.20;;;;;;5029812;28;20044;-57
2023/09/11 11:47:08;;;;;;;11.32;7.30;;;29.50;54.20;;;;;;5023000;28;20065;-57
2023/09/11 11:49:37;;;;;;;10.00;6.63;;;29.50;54.00;;;;;;5030083;28;20037;-57
2023/09/11 11:52:09;;;;;;;;;;;29.60;53.30;;;;;;5026910;28;20033;-56
2023/09/11 11:54:36;;;;;;;8.68;7.25;;;29.70;54.10;;;;;;5025559;28;19925;-56
2023/09/11 11:57:04;;;;;;;9.77;7.25;;;29.70;53.70;;;;;;5028076;28;20037;-56
2023/09/11 11:59:39;;;;;;;9.20;8.48;;;29.70;53.40;;;;;;5026389;28;20092;-57
2023/09/11 12:02:19;;;;;;;10.05;7.63;;;29.80;52.80;;;;;;5026116;28;20472;-58
2023/09/11 12:04:46;;;;;;;10.95;7.90;;;29.90;53.40;;;;;;5024530;28;20038;-57
2023/09/11 12:07:16;;;;;;;7.82;7.18;;;29.90;53.30;;;;;;5026985;28;20634;-56
2023/09/11 12:09:44;;;;;;;10.05;7.72;;;30.00;53.10;;;;;;5027964;28;20092;-57
2023/09/11 12:12:11;;;;;;;9.77;7.20;;;30.00;52.40;;;;;;5027079;28;20728;-54
2023/09/11 12:14:41;;;;;;;9.48;7.00;;;30.10;52.60;;;;;;5029274;28;20399;-54
2023/09/11 12:17:10;;;;;;;9.32;7.45;;;30.10;52.40;;;;;;5030180;28;20049;-56
2023/09/11 12:19:42;;;;;;;15.50;7.88;;;30.30;52.40;;;;;;5026175;28;20049;-58
2023/09/11 12:22:10;;;;;;;9.65;7.32;;;30.30;52.30;;;;;;5029111;28;20521;-58
2023/09/11 12:24:40;;;;;;;8.40;7.53;;;30.40;52.50;;;;;;5022339;28;20577;-59
2023/09/11 12:27:07;;;;;;;7.53;6.78;;;30.50;52.00;;;;;;5028842;28;20045;-58
2023/09/11 12:29:39;;;;;;;7.17;6.33;;;30.60;51.50;;;;;;5025607;28;20099;-57
2023/09/11 12:32:06;;;;;;;7.00;6.30;;;30.60;51.40;;;;;;5025800;28;20418;-56
2023/09/11 12:34:47;;;;;;;7.57;6.85;;;30.70;50.00;;;;;;5026714;28;20554;-58
2023/09/11 12:37:17;;;;;;;6.55;5.93;;;30.80;50.10;;;;;;5028821;28;20048;-59
2023/09/11 12:39:44;;;;;;;9.25;6.90;;;30.80;50.20;;;;;;5028433;28;20036;-58
2023/09/11 12:42:11;;;;;;;8.27;7.45;;;30.90;51.00;;;;;;5026295;28;20037;-60
2023/09/11 12:44:38;;;;;;;9.90;7.68;;;30.90;50.10;;;;;;5027162;28;20041;-57
2023/09/11 12:47:08;;;;;;;9.18;6.72;;;31.00;50.50;;;;;;5030006;28;20041;-57
2023/09/11 12:49:35;;;;;;;9.23;6.65;;;31.00;49.80;;;;;;5027919;28;20037;-59
2023/09/11 12:52:04;;;;;;;8.20;6.85;;;31.10;49.80;;;;;;5023204;28;20076;-58
2023/09/11 12:54:31;;;;;;;10.15;6.88;;;31.20;49.30;;;;;;5028672;28;20041;-58
2023/09/11 12:57:02;;;;;;;8.48;6.65;;;31.30;49.30;;;;;;5029245;28;20038;-58
2023/09/11 12:59:33;;;;;;;11.27;7.30;;;31.40;49.00;;;;;;5026477;28;20423;-56
2023/09/11 13:02:06;;;;;;;9.00;6.63;;;31.50;48.50;;;;;;5024209;28;20044;-56
2023/09/11 13:04:38;;;;;;;7.10;6.43;;;31.50;48.50;;;;;;5027189;28;20124;-55
2023/09/11 13:07:09;;;;;;;10.63;6.30;;;31.60;48.30;;;;;;5027720;28;20041;-56
2023/09/11 13:09:38;;;;;;;7.65;6.95;;;31.70;48.20;;;;;;5027687;28;20077;-56
2023/09/11 13:12:08;;;;;;;7.88;7.07;;;31.80;47.60;;;;;;5028820;28;20045;-53
2023/09/11 13:14:37;;;;;;;6.72;6.10;;;31.80;47.90;;;;;;5027303;28;20053;-59
2023/09/11 13:17:06;;;;;;;10.15;6.55;;;31.90;47.70;;;;;;5028103;28;20041;-59
2023/09/11 13:19:32;;;;;;;6.93;6.18;;;32.00;47.00;;;;;;5030727;28;20120;-58
2023/09/11 13:21:59;;;;;;;7.38;6.53;;;32.20;46.60;;;;;;5028131;28;20095;-58